sensor_id;sensor_type;location;lat;lon;timestamp;P1;durP1;ratioP1;P2;durP2;ratioP2
23682;SDS011;24897;53.514;10.482;2022-12-05T00:02:26;76.17;;;48.17;;
23682;SDS011;24897;53.514;10.482;2022-12-05T00:05:10;75.67;;;48.43;;
23682;SDS011;24897;53.514;10.482;2022-12-05T00:07:55;82.83;;;49.13;;
23682;SDS011;24897;53.514;10.482;2022-12-05T00:10:39;82.87;;;48.90;;
23682;SDS011;24897;53.514;10.482;2022-12-05T00:13:23;78.57;;;48.27;;
23682;SDS011;24897;53.514;10.482;2022-12-05T00:16:08;74.23;;;45.93;;
23682;SDS011;24897;53.514;10.482;2022-12-05T00:18:54;79.13;;;47.23;;
23682;SDS011;24897;53.514;10.482;2022-12-05T00:21:41;72.97;;;45.60;;
23682;SDS011;24897;53.514;10.482;2022-12-05T00:24:26;71.93;;;46.40;;
23682;SDS011;24897;53.514;10.482;2022-12-05T00:27:10;68.67;;;44.47;;
23682;SDS011;24897;53.514;10.482;2022-12-05T00:29:54;76.63;;;47.17;;
23682;SDS011;24897;53.514;10.482;2022-12-05T00:32:38;71.37;;;45.33;;
23682;SDS011;24897;53.514;10.482;2022-12-05T00:35:22;73.43;;;47.47;;
23682;SDS011;24897;53.514;10.482;2022-12-05T00:38:07;69.07;;;45.57;;
23682;SDS011;24897;53.514;10.482;2022-12-05T00:40:51;66.23;;;45.20;;
23682;SDS011;24897;53.514;10.482;2022-12-05T00:43:35;67.33;;;45.80;;
23682;SDS011;24897;53.514;10.482;2022-12-05T00:46:21;69.33;;;45.07;;
23682;SDS011;24897;53.514;10.482;2022-12-05T00:49:07;70.13;;;46.47;;
23682;SDS011;24897;53.514;10.482;2022-12-05T00:51:51;73.83;;;47.10;;
23682;SDS011;24897;53.514;10.482;2022-12-05T00:54:37;67.70;;;45.57;;
23682;SDS011;24897;53.514;10.482;2022-12-05T00:57:21;68.80;;;45.33;;
23682;SDS011;24897;53.514;10.482;2022-12-05T01:00:05;64.30;;;43.57;;
23682;SDS011;24897;53.514;10.482;2022-12-05T01:02:50;69.50;;;44.73;;
23682;SDS011;24897;53.514;10.482;2022-12-05T01:05:34;67.13;;;43.13;;
23682;SDS011;24897;53.514;10.482;2022-12-05T01:08:19;69.53;;;45.00;;
23682;SDS011;24897;53.514;10.482;2022-12-05T01:11:04;73.80;;;45.70;;
23682;SDS011;24897;53.514;10.482;2022-12-05T01:13:50;71.80;;;45.60;;
23682;SDS011;24897;53.514;10.482;2022-12-05T01:16:36;68.57;;;45.27;;
23682;SDS011;24897;53.514;10.482;2022-12-05T01:19:23;70.20;;;44.73;;
23682;SDS011;24897;53.514;10.482;2022-12-05T01:22:09;71.37;;;45.60;;
23682;SDS011;24897;53.514;10.482;2022-12-05T01:24:54;70.57;;;45.33;;
23682;SDS011;24897;53.514;10.482;2022-12-05T01:27:41;66.73;;;43.97;;
23682;SDS011;24897;53.514;10.482;2022-12-05T01:30:25;64.20;;;42.93;;
23682;SDS011;24897;53.514;10.482;2022-12-05T01:33:09;71.80;;;44.33;;
23682;SDS011;24897;53.514;10.482;2022-12-05T01:35:54;68.20;;;43.87;;
23682;SDS011;24897;53.514;10.482;2022-12-05T01:38:39;66.10;;;43.37;;
23682;SDS011;24897;53.514;10.482;2022-12-05T01:41:29;64.27;;;42.40;;
23682;SDS011;24897;53.514;10.482;2022-12-05T01:46:59;64.57;;;43.47;;
23682;SDS011;24897;53.514;10.482;2022-12-05T01:49:43;66.43;;;43.73;;
23682;SDS011;24897;53.514;10.482;2022-12-05T01:52:28;69.93;;;44.83;;
23682;SDS011;24897;53.514;10.482;2022-12-05T01:55:14;71.93;;;44.93;;
23682;SDS011;24897;53.514;10.482;2022-12-05T01:58:01;67.70;;;44.30;;
23682;SDS011;24897;53.514;10.482;2022-12-05T02:00:47;69.80;;;44.70;;
23682;SDS011;24897;53.514;10.482;2022-12-05T02:03:31;65.63;;;44.20;;
23682;SDS011;24897;53.514;10.482;2022-12-05T02:06:18;73.20;;;45.73;;
23682;SDS011;24897;53.514;10.482;2022-12-05T02:09:03;74.37;;;46.63;;
23682;SDS011;24897;53.514;10.482;2022-12-05T02:11:49;72.30;;;44.47;;
23682;SDS011;24897;53.514;10.482;2022-12-05T02:17:42;75.03;;;45.77;;
23682;SDS011;24897;53.514;10.482;2022-12-05T02:30:20;80.53;;;47.63;;
23682;SDS011;24897;53.514;10.482;2022-12-05T02:36:22;72.70;;;47.13;;
23682;SDS011;24897;53.514;10.482;2022-12-05T02:39:42;76.77;;;47.23;;
23682;SDS011;24897;53.514;10.482;2022-12-05T02:42:27;78.73;;;49.10;;
23682;SDS011;24897;53.514;10.482;2022-12-05T02:45:19;80.03;;;47.80;;
23682;SDS011;24897;53.514;10.482;2022-12-05T02:48:08;78.87;;;46.70;;
23682;SDS011;24897;53.514;10.482;2022-12-05T02:50:55;74.43;;;47.00;;
23682;SDS011;24897;53.514;10.482;2022-12-05T02:53:41;79.27;;;46.30;;
23682;SDS011;24897;53.514;10.482;2022-12-05T02:56:26;83.37;;;48.17;;
23682;SDS011;24897;53.514;10.482;2022-12-05T02:59:15;72.60;;;45.37;;
23682;SDS011;24897;53.514;10.482;2022-12-05T03:01:59;77.33;;;46.63;;
23682;SDS011;24897;53.514;10.482;2022-12-05T03:04:43;81.40;;;46.27;;
23682;SDS011;24897;53.514;10.482;2022-12-05T03:07:28;81.27;;;47.03;;
23682;SDS011;24897;53.514;10.482;2022-12-05T03:10:14;85.07;;;47.67;;
23682;SDS011;24897;53.514;10.482;2022-12-05T03:13:07;78.87;;;47.13;;
23682;SDS011;24897;53.514;10.482;2022-12-05T03:15:59;85.23;;;48.57;;
23682;SDS011;24897;53.514;10.482;2022-12-05T03:18:52;85.23;;;48.53;;
23682;SDS011;24897;53.514;10.482;2022-12-05T03:21:40;82.77;;;47.93;;
23682;SDS011;24897;53.514;10.482;2022-12-05T03:24:32;81.93;;;48.20;;
23682;SDS011;24897;53.514;10.482;2022-12-05T03:27:24;86.63;;;48.47;;
23682;SDS011;24897;53.514;10.482;2022-12-05T03:30:25;82.90;;;49.03;;
23682;SDS011;24897;53.514;10.482;2022-12-05T03:33:10;94.73;;;52.37;;
23682;SDS011;24897;53.514;10.482;2022-12-05T03:42:02;90.30;;;52.73;;
23682;SDS011;24897;53.514;10.482;2022-12-05T03:44:52;96.70;;;52.97;;
23682;SDS011;24897;53.514;10.482;2022-12-05T03:47:46;92.97;;;53.37;;
23682;SDS011;24897;53.514;10.482;2022-12-05T03:50:32;89.03;;;52.87;;
23682;SDS011;24897;53.514;10.482;2022-12-05T03:53:21;93.93;;;53.33;;
23682;SDS011;24897;53.514;10.482;2022-12-05T03:56:18;90.73;;;53.93;;
23682;SDS011;24897;53.514;10.482;2022-12-05T04:02:04;89.10;;;55.80;;
23682;SDS011;24897;53.514;10.482;2022-12-05T04:04:55;94.10;;;57.13;;
23682;SDS011;24897;53.514;10.482;2022-12-05T04:08:26;102.57;;;62.50;;
23682;SDS011;24897;53.514;10.482;2022-12-05T04:11:06;96.30;;;57.63;;
23682;SDS011;24897;53.514;10.482;2022-12-05T04:13:59;100.37;;;60.40;;
23682;SDS011;24897;53.514;10.482;2022-12-05T04:20:18;92.97;;;59.57;;
23682;SDS011;24897;53.514;10.482;2022-12-05T04:23:25;102.10;;;59.43;;
23682;SDS011;24897;53.514;10.482;2022-12-05T04:26:20;97.27;;;58.40;;
23682;SDS011;24897;53.514;10.482;2022-12-05T04:29:21;106.43;;;60.90;;
23682;SDS011;24897;53.514;10.482;2022-12-05T04:32:14;97.53;;;59.00;;
23682;SDS011;24897;53.514;10.482;2022-12-05T04:35:03;107.70;;;60.23;;
23682;SDS011;24897;53.514;10.482;2022-12-05T04:37:55;108.00;;;59.90;;
23682;SDS011;24897;53.514;10.482;2022-12-05T04:40:47;118.57;;;62.77;;
23682;SDS011;24897;53.514;10.482;2022-12-05T04:43:39;104.53;;;60.17;;
23682;SDS011;24897;53.514;10.482;2022-12-05T04:46:26;102.23;;;58.97;;
23682;SDS011;24897;53.514;10.482;2022-12-05T04:49:11;109.07;;;60.20;;
23682;SDS011;24897;53.514;10.482;2022-12-05T04:52:01;102.43;;;57.67;;
23682;SDS011;24897;53.514;10.482;2022-12-05T04:55:01;127.10;;;62.23;;
23682;SDS011;24897;53.514;10.482;2022-12-05T04:57:57;127.93;;;63.57;;
23682;SDS011;24897;53.514;10.482;2022-12-05T05:00:49;128.27;;;61.13;;
23682;SDS011;24897;53.514;10.482;2022-12-05T05:03:55;133.50;;;61.37;;
23682;SDS011;24897;53.514;10.482;2022-12-05T05:06:43;146.77;;;65.83;;
23682;SDS011;24897;53.514;10.482;2022-12-05T05:09:27;150.60;;;65.10;;
23682;SDS011;24897;53.514;10.482;2022-12-05T05:12:13;137.30;;;61.23;;
23682;SDS011;24897;53.514;10.482;2022-12-05T05:14:57;136.30;;;58.73;;
23682;SDS011;24897;53.514;10.482;2022-12-05T05:17:41;148.07;;;61.00;;
23682;SDS011;24897;53.514;10.482;2022-12-05T05:20:25;167.77;;;64.00;;
23682;SDS011;24897;53.514;10.482;2022-12-05T05:23:10;149.80;;;62.67;;
23682;SDS011;24897;53.514;10.482;2022-12-05T05:25:54;145.03;;;60.97;;
23682;SDS011;24897;53.514;10.482;2022-12-05T05:28:39;134.90;;;57.13;;
23682;SDS011;24897;53.514;10.482;2022-12-05T05:31:24;137.03;;;59.00;;
23682;SDS011;24897;53.514;10.482;2022-12-05T05:34:09;159.97;;;61.27;;
23682;SDS011;24897;53.514;10.482;2022-12-05T05:36:54;144.53;;;60.67;;
23682;SDS011;24897;53.514;10.482;2022-12-05T05:39:39;152.37;;;62.97;;
23682;SDS011;24897;53.514;10.482;2022-12-05T05:42:23;142.63;;;57.97;;
23682;SDS011;24897;53.514;10.482;2022-12-05T05:45:07;145.17;;;58.83;;
23682;SDS011;24897;53.514;10.482;2022-12-05T05:47:53;150.13;;;60.00;;
23682;SDS011;24897;53.514;10.482;2022-12-05T05:50:37;137.97;;;56.77;;
23682;SDS011;24897;53.514;10.482;2022-12-05T05:53:21;132.40;;;57.13;;
23682;SDS011;24897;53.514;10.482;2022-12-05T05:56:06;141.27;;;57.70;;
23682;SDS011;24897;53.514;10.482;2022-12-05T05:58:54;155.60;;;60.60;;
23682;SDS011;24897;53.514;10.482;2022-12-05T06:01:42;126.60;;;57.83;;
23682;SDS011;24897;53.514;10.482;2022-12-05T06:04:27;141.23;;;58.67;;
23682;SDS011;24897;53.514;10.482;2022-12-05T06:07:11;177.97;;;64.40;;
23682;SDS011;24897;53.514;10.482;2022-12-05T06:09:55;146.77;;;61.80;;
23682;SDS011;24897;53.514;10.482;2022-12-05T06:12:39;134.60;;;58.53;;
23682;SDS011;24897;53.514;10.482;2022-12-05T06:15:26;132.97;;;58.00;;
23682;SDS011;24897;53.514;10.482;2022-12-05T06:18:10;114.17;;;56.53;;
23682;SDS011;24897;53.514;10.482;2022-12-05T06:20:54;127.47;;;56.00;;
23682;SDS011;24897;53.514;10.482;2022-12-05T06:23:39;114.27;;;56.00;;
23682;SDS011;24897;53.514;10.482;2022-12-05T06:26:24;117.30;;;56.90;;
23682;SDS011;24897;53.514;10.482;2022-12-05T06:29:09;116.07;;;55.97;;
23682;SDS011;24897;53.514;10.482;2022-12-05T06:31:53;124.57;;;57.00;;
23682;SDS011;24897;53.514;10.482;2022-12-05T06:34:37;116.03;;;53.73;;
23682;SDS011;24897;53.514;10.482;2022-12-05T06:37:21;114.73;;;56.07;;
23682;SDS011;24897;53.514;10.482;2022-12-05T06:40:05;111.50;;;56.20;;
23682;SDS011;24897;53.514;10.482;2022-12-05T06:42:50;107.80;;;53.33;;
23682;SDS011;24897;53.514;10.482;2022-12-05T06:45:36;109.13;;;53.60;;
23682;SDS011;24897;53.514;10.482;2022-12-05T06:48:20;99.63;;;53.00;;
23682;SDS011;24897;53.514;10.482;2022-12-05T06:51:04;99.83;;;52.37;;
23682;SDS011;24897;53.514;10.482;2022-12-05T06:53:52;87.60;;;50.70;;
23682;SDS011;24897;53.514;10.482;2022-12-05T06:56:37;93.87;;;51.63;;
23682;SDS011;24897;53.514;10.482;2022-12-05T06:59:22;102.00;;;53.30;;
23682;SDS011;24897;53.514;10.482;2022-12-05T07:02:07;98.27;;;52.97;;
23682;SDS011;24897;53.514;10.482;2022-12-05T07:04:53;98.57;;;50.83;;
23682;SDS011;24897;53.514;10.482;2022-12-05T07:07:37;102.13;;;53.33;;
23682;SDS011;24897;53.514;10.482;2022-12-05T07:10:22;93.13;;;52.27;;
23682;SDS011;24897;53.514;10.482;2022-12-05T07:13:06;100.20;;;52.97;;
23682;SDS011;24897;53.514;10.482;2022-12-05T07:15:50;94.63;;;50.77;;
23682;SDS011;24897;53.514;10.482;2022-12-05T07:18:35;100.00;;;50.50;;
23682;SDS011;24897;53.514;10.482;2022-12-05T07:21:19;96.47;;;52.83;;
23682;SDS011;24897;53.514;10.482;2022-12-05T07:24:05;95.83;;;52.27;;
23682;SDS011;24897;53.514;10.482;2022-12-05T07:26:49;96.90;;;54.00;;
23682;SDS011;24897;53.514;10.482;2022-12-05T07:29:33;93.60;;;50.37;;
23682;SDS011;24897;53.514;10.482;2022-12-05T07:32:17;90.23;;;49.07;;
23682;SDS011;24897;53.514;10.482;2022-12-05T07:35:01;89.30;;;49.67;;
23682;SDS011;24897;53.514;10.482;2022-12-05T07:37:45;94.10;;;50.83;;
23682;SDS011;24897;53.514;10.482;2022-12-05T07:40:30;97.27;;;52.30;;
23682;SDS011;24897;53.514;10.482;2022-12-05T07:43:14;93.30;;;51.60;;
23682;SDS011;24897;53.514;10.482;2022-12-05T07:46:02;89.27;;;50.50;;
23682;SDS011;24897;53.514;10.482;2022-12-05T07:48:48;95.90;;;52.67;;
23682;SDS011;24897;53.514;10.482;2022-12-05T07:51:33;86.23;;;50.30;;
23682;SDS011;24897;53.514;10.482;2022-12-05T07:54:18;86.57;;;50.50;;
23682;SDS011;24897;53.514;10.482;2022-12-05T07:57:02;81.37;;;48.27;;
23682;SDS011;24897;53.514;10.482;2022-12-05T07:59:46;92.13;;;50.17;;
23682;SDS011;24897;53.514;10.482;2022-12-05T08:02:30;87.50;;;49.10;;
23682;SDS011;24897;53.514;10.482;2022-12-05T08:05:14;84.97;;;52.00;;
23682;SDS011;24897;53.514;10.482;2022-12-05T08:07:59;79.57;;;46.17;;
23682;SDS011;24897;53.514;10.482;2022-12-05T08:10:43;81.07;;;49.53;;
23682;SDS011;24897;53.514;10.482;2022-12-05T08:13:28;80.80;;;48.77;;
23682;SDS011;24897;53.514;10.482;2022-12-05T08:16:13;83.93;;;47.90;;
23682;SDS011;24897;53.514;10.482;2022-12-05T08:19:00;87.93;;;50.37;;
23682;SDS011;24897;53.514;10.482;2022-12-05T08:21:49;80.20;;;47.80;;
23682;SDS011;24897;53.514;10.482;2022-12-05T08:24:34;79.00;;;48.00;;
23682;SDS011;24897;53.514;10.482;2022-12-05T08:27:19;79.57;;;48.47;;
23682;SDS011;24897;53.514;10.482;2022-12-05T08:30:04;81.17;;;48.80;;
23682;SDS011;24897;53.514;10.482;2022-12-05T08:32:51;85.13;;;49.37;;
23682;SDS011;24897;53.514;10.482;2022-12-05T08:35:36;84.80;;;49.20;;
23682;SDS011;24897;53.514;10.482;2022-12-05T08:38:21;80.53;;;48.83;;
23682;SDS011;24897;53.514;10.482;2022-12-05T08:41:06;84.37;;;50.33;;
23682;SDS011;24897;53.514;10.482;2022-12-05T08:43:53;85.17;;;49.90;;
23682;SDS011;24897;53.514;10.482;2022-12-05T08:46:38;85.30;;;51.70;;
23682;SDS011;24897;53.514;10.482;2022-12-05T08:49:22;89.73;;;51.27;;
23682;SDS011;24897;53.514;10.482;2022-12-05T08:52:07;96.33;;;54.37;;
23682;SDS011;24897;53.514;10.482;2022-12-05T08:54:51;90.40;;;51.60;;
23682;SDS011;24897;53.514;10.482;2022-12-05T08:57:36;94.73;;;57.83;;
23682;SDS011;24897;53.514;10.482;2022-12-05T09:00:20;85.27;;;53.13;;
23682;SDS011;24897;53.514;10.482;2022-12-05T09:03:05;86.00;;;52.00;;
23682;SDS011;24897;53.514;10.482;2022-12-05T09:05:49;89.30;;;48.97;;
23682;SDS011;24897;53.514;10.482;2022-12-05T09:08:34;97.27;;;52.13;;
23682;SDS011;24897;53.514;10.482;2022-12-05T09:11:21;87.03;;;50.17;;
23682;SDS011;24897;53.514;10.482;2022-12-05T09:14:07;84.60;;;47.67;;
23682;SDS011;24897;53.514;10.482;2022-12-05T09:16:51;91.63;;;53.20;;
23682;SDS011;24897;53.514;10.482;2022-12-05T09:19:35;90.13;;;52.10;;
23682;SDS011;24897;53.514;10.482;2022-12-05T09:22:20;89.23;;;51.00;;
23682;SDS011;24897;53.514;10.482;2022-12-05T09:25:06;93.50;;;54.27;;
23682;SDS011;24897;53.514;10.482;2022-12-05T09:27:51;102.57;;;61.53;;
23682;SDS011;24897;53.514;10.482;2022-12-05T09:30:37;100.50;;;59.07;;
23682;SDS011;24897;53.514;10.482;2022-12-05T09:33:21;107.73;;;60.87;;
23682;SDS011;24897;53.514;10.482;2022-12-05T09:36:07;95.60;;;58.60;;
23682;SDS011;24897;53.514;10.482;2022-12-05T09:38:55;104.17;;;63.00;;
23682;SDS011;24897;53.514;10.482;2022-12-05T09:41:54;103.80;;;60.10;;
23682;SDS011;24897;53.514;10.482;2022-12-05T09:48:04;117.10;;;66.13;;
23682;SDS011;24897;53.514;10.482;2022-12-05T09:50:58;100.60;;;61.33;;
23682;SDS011;24897;53.514;10.482;2022-12-05T09:53:44;105.30;;;59.57;;
23682;SDS011;24897;53.514;10.482;2022-12-05T09:56:29;92.77;;;56.47;;
23682;SDS011;24897;53.514;10.482;2022-12-05T09:59:14;90.30;;;57.30;;
23682;SDS011;24897;53.514;10.482;2022-12-05T10:05:05;87.97;;;56.30;;
23682;SDS011;24897;53.514;10.482;2022-12-05T10:11:09;91.67;;;55.33;;
23682;SDS011;24897;53.514;10.482;2022-12-05T10:14:15;103.00;;;62.50;;
23682;SDS011;24897;53.514;10.482;2022-12-05T10:17:15;100.73;;;59.30;;
23682;SDS011;24897;53.514;10.482;2022-12-05T10:20:10;99.27;;;58.47;;
23682;SDS011;24897;53.514;10.482;2022-12-05T10:23:03;102.43;;;59.10;;
23682;SDS011;24897;53.514;10.482;2022-12-05T10:25:54;105.47;;;60.43;;
23682;SDS011;24897;53.514;10.482;2022-12-05T10:32:17;94.73;;;56.87;;
23682;SDS011;24897;53.514;10.482;2022-12-05T10:37:59;103.60;;;59.27;;
23682;SDS011;24897;53.514;10.482;2022-12-05T10:40:48;98.47;;;58.63;;
23682;SDS011;24897;53.514;10.482;2022-12-05T10:43:38;95.03;;;56.33;;
23682;SDS011;24897;53.514;10.482;2022-12-05T10:46:25;92.40;;;55.97;;
23682;SDS011;24897;53.514;10.482;2022-12-05T10:49:10;92.97;;;56.50;;
23682;SDS011;24897;53.514;10.482;2022-12-05T10:51:55;101.37;;;56.83;;
23682;SDS011;24897;53.514;10.482;2022-12-05T10:54:42;92.20;;;52.70;;
23682;SDS011;24897;53.514;10.482;2022-12-05T10:57:30;87.97;;;52.07;;
23682;SDS011;24897;53.514;10.482;2022-12-05T11:00:15;89.43;;;54.30;;
23682;SDS011;24897;53.514;10.482;2022-12-05T11:03:14;90.80;;;51.63;;
23682;SDS011;24897;53.514;10.482;2022-12-05T11:06:24;93.00;;;49.83;;
23682;SDS011;24897;53.514;10.482;2022-12-05T11:09:51;77.87;;;47.63;;
23682;SDS011;24897;53.514;10.482;2022-12-05T11:12:22;90.20;;;48.43;;
23682;SDS011;24897;53.514;10.482;2022-12-05T11:21:21;86.70;;;48.80;;
23682;SDS011;24897;53.514;10.482;2022-12-05T11:27:27;79.97;;;47.83;;
23682;SDS011;24897;53.514;10.482;2022-12-05T11:30:17;78.87;;;45.60;;
23682;SDS011;24897;53.514;10.482;2022-12-05T11:33:09;76.37;;;45.13;;
23682;SDS011;24897;53.514;10.482;2022-12-05T11:36:11;79.10;;;47.43;;
23682;SDS011;24897;53.514;10.482;2022-12-05T11:39:01;79.43;;;47.63;;
23682;SDS011;24897;53.514;10.482;2022-12-05T12:03:18;80.77;;;46.33;;
23682;SDS011;24897;53.514;10.482;2022-12-05T12:06:28;74.90;;;44.73;;
23682;SDS011;24897;53.514;10.482;2022-12-05T12:09:32;76.93;;;45.77;;
23682;SDS011;24897;53.514;10.482;2022-12-05T12:16:02;85.90;;;47.53;;
23682;SDS011;24897;53.514;10.482;2022-12-05T12:19:01;78.73;;;48.43;;
23682;SDS011;24897;53.514;10.482;2022-12-05T12:22:06;75.57;;;48.20;;
23682;SDS011;24897;53.514;10.482;2022-12-05T12:31:14;87.07;;;49.27;;
23682;SDS011;24897;53.514;10.482;2022-12-05T12:47:00;85.60;;;50.40;;
23682;SDS011;24897;53.514;10.482;2022-12-05T12:52:53;77.80;;;46.07;;
23682;SDS011;24897;53.514;10.482;2022-12-05T13:01:42;75.73;;;45.57;;
23682;SDS011;24897;53.514;10.482;2022-12-05T13:04:48;79.10;;;44.77;;
23682;SDS011;24897;53.514;10.482;2022-12-05T13:07:46;77.70;;;44.40;;
23682;SDS011;24897;53.514;10.482;2022-12-05T13:10:45;74.20;;;44.40;;
23682;SDS011;24897;53.514;10.482;2022-12-05T13:13:33;77.10;;;45.37;;
23682;SDS011;24897;53.514;10.482;2022-12-05T13:16:25;71.43;;;43.63;;
23682;SDS011;24897;53.514;10.482;2022-12-05T13:22:32;75.70;;;46.07;;
23682;SDS011;24897;53.514;10.482;2022-12-05T13:25:18;86.63;;;47.63;;
23682;SDS011;24897;53.514;10.482;2022-12-05T13:28:05;77.33;;;49.63;;
23682;SDS011;24897;53.514;10.482;2022-12-05T13:30:59;82.50;;;50.33;;
23682;SDS011;24897;53.514;10.482;2022-12-05T13:33:49;85.90;;;49.60;;
23682;SDS011;24897;53.514;10.482;2022-12-05T13:36:39;84.63;;;49.57;;
23682;SDS011;24897;53.514;10.482;2022-12-05T13:39:49;80.53;;;48.70;;
23682;SDS011;24897;53.514;10.482;2022-12-05T13:42:58;73.43;;;47.70;;
23682;SDS011;24897;53.514;10.482;2022-12-05T13:48:50;80.63;;;50.30;;
23682;SDS011;24897;53.514;10.482;2022-12-05T13:51:43;86.63;;;52.93;;
23682;SDS011;24897;53.514;10.482;2022-12-05T13:54:28;81.40;;;54.40;;
23682;SDS011;24897;53.514;10.482;2022-12-05T14:00:37;84.33;;;54.30;;
23682;SDS011;24897;53.514;10.482;2022-12-05T14:09:47;85.20;;;67.37;;
23682;SDS011;24897;53.514;10.482;2022-12-05T14:12:43;95.90;;;69.67;;
23682;SDS011;24897;53.514;10.482;2022-12-05T14:15:32;88.07;;;68.57;;
23682;SDS011;24897;53.514;10.482;2022-12-05T14:27:48;118.17;;;78.13;;
23682;SDS011;24897;53.514;10.482;2022-12-05T14:34:15;103.77;;;76.67;;
23682;SDS011;24897;53.514;10.482;2022-12-05T14:40:01;96.10;;;71.70;;
23682;SDS011;24897;53.514;10.482;2022-12-05T14:43:04;86.27;;;69.23;;
23682;SDS011;24897;53.514;10.482;2022-12-05T14:46:02;91.43;;;69.17;;
23682;SDS011;24897;53.514;10.482;2022-12-05T14:48:49;95.97;;;73.53;;
23682;SDS011;24897;53.514;10.482;2022-12-05T14:54:17;96.37;;;70.33;;
23682;SDS011;24897;53.514;10.482;2022-12-05T14:57:07;88.57;;;67.43;;
23682;SDS011;24897;53.514;10.482;2022-12-05T14:59:57;102.50;;;68.13;;
23682;SDS011;24897;53.514;10.482;2022-12-05T15:02:50;92.17;;;71.73;;
23682;SDS011;24897;53.514;10.482;2022-12-05T15:05:38;96.77;;;69.53;;
23682;SDS011;24897;53.514;10.482;2022-12-05T15:08:26;94.00;;;68.50;;
23682;SDS011;24897;53.514;10.482;2022-12-05T15:11:15;84.57;;;66.87;;
23682;SDS011;24897;53.514;10.482;2022-12-05T15:14:21;96.00;;;70.80;;
23682;SDS011;24897;53.514;10.482;2022-12-05T15:17:10;90.57;;;67.63;;
23682;SDS011;24897;53.514;10.482;2022-12-05T15:20:03;91.47;;;67.17;;
23682;SDS011;24897;53.514;10.482;2022-12-05T15:22:59;85.77;;;66.33;;
23682;SDS011;24897;53.514;10.482;2022-12-05T15:25:43;93.27;;;70.67;;
23682;SDS011;24897;53.514;10.482;2022-12-05T15:28:28;87.87;;;67.43;;
23682;SDS011;24897;53.514;10.482;2022-12-05T15:31:12;93.77;;;66.17;;
23682;SDS011;24897;53.514;10.482;2022-12-05T15:33:59;110.17;;;75.57;;
23682;SDS011;24897;53.514;10.482;2022-12-05T15:36:55;99.67;;;71.30;;
23682;SDS011;24897;53.514;10.482;2022-12-05T15:42:54;102.60;;;71.60;;
23682;SDS011;24897;53.514;10.482;2022-12-05T15:45:40;89.63;;;67.77;;
23682;SDS011;24897;53.514;10.482;2022-12-05T15:48:24;84.40;;;66.13;;
23682;SDS011;24897;53.514;10.482;2022-12-05T15:51:08;88.30;;;65.90;;
23682;SDS011;24897;53.514;10.482;2022-12-05T15:53:54;82.33;;;61.93;;
23682;SDS011;24897;53.514;10.482;2022-12-05T15:56:51;80.17;;;62.77;;
23682;SDS011;24897;53.514;10.482;2022-12-05T16:00:05;115.67;;;75.53;;
23682;SDS011;24897;53.514;10.482;2022-12-05T16:03:01;95.37;;;67.23;;
23682;SDS011;24897;53.514;10.482;2022-12-05T16:06:18;85.47;;;66.73;;
23682;SDS011;24897;53.514;10.482;2022-12-05T16:09:08;84.97;;;63.70;;
23682;SDS011;24897;53.514;10.482;2022-12-05T16:12:22;77.70;;;64.23;;
23682;SDS011;24897;53.514;10.482;2022-12-05T16:15:10;93.33;;;68.57;;
23682;SDS011;24897;53.514;10.482;2022-12-05T16:18:02;92.53;;;68.83;;
23682;SDS011;24897;53.514;10.482;2022-12-05T16:20:48;85.27;;;65.23;;
23682;SDS011;24897;53.514;10.482;2022-12-05T16:23:33;90.10;;;67.93;;
23682;SDS011;24897;53.514;10.482;2022-12-05T16:26:20;87.03;;;68.83;;
23682;SDS011;24897;53.514;10.482;2022-12-05T16:29:23;92.80;;;67.50;;
23682;SDS011;24897;53.514;10.482;2022-12-05T16:32:23;90.83;;;67.80;;
23682;SDS011;24897;53.514;10.482;2022-12-05T16:41:03;94.60;;;69.97;;
23682;SDS011;24897;53.514;10.482;2022-12-05T16:43:49;89.13;;;65.33;;
23682;SDS011;24897;53.514;10.482;2022-12-05T16:49:21;91.17;;;62.00;;
23682;SDS011;24897;53.514;10.482;2022-12-05T16:52:13;88.43;;;62.30;;
23682;SDS011;24897;53.514;10.482;2022-12-05T16:54:58;85.83;;;61.83;;
23682;SDS011;24897;53.514;10.482;2022-12-05T16:57:42;91.10;;;65.10;;
23682;SDS011;24897;53.514;10.482;2022-12-05T17:00:26;105.20;;;73.33;;
23682;SDS011;24897;53.514;10.482;2022-12-05T17:03:11;100.53;;;71.10;;
23682;SDS011;24897;53.514;10.482;2022-12-05T17:05:56;91.30;;;68.33;;
23682;SDS011;24897;53.514;10.482;2022-12-05T17:08:41;83.80;;;63.37;;
23682;SDS011;24897;53.514;10.482;2022-12-05T17:11:26;86.63;;;63.17;;
23682;SDS011;24897;53.514;10.482;2022-12-05T17:14:13;85.50;;;59.87;;
23682;SDS011;24897;53.514;10.482;2022-12-05T17:16:59;104.33;;;62.50;;
23682;SDS011;24897;53.514;10.482;2022-12-05T17:19:43;82.43;;;58.27;;
23682;SDS011;24897;53.514;10.482;2022-12-05T17:22:27;79.93;;;57.97;;
23682;SDS011;24897;53.514;10.482;2022-12-05T17:25:25;77.23;;;57.83;;
23682;SDS011;24897;53.514;10.482;2022-12-05T17:28:14;84.67;;;57.77;;
23682;SDS011;24897;53.514;10.482;2022-12-05T17:30:58;80.70;;;56.00;;
23682;SDS011;24897;53.514;10.482;2022-12-05T17:33:43;71.10;;;54.23;;
23682;SDS011;24897;53.514;10.482;2022-12-05T17:36:27;71.80;;;53.03;;
23682;SDS011;24897;53.514;10.482;2022-12-05T17:39:11;98.77;;;57.17;;
23682;SDS011;24897;53.514;10.482;2022-12-05T17:41:56;80.27;;;54.47;;
23682;SDS011;24897;53.514;10.482;2022-12-05T17:44:40;80.90;;;54.90;;
23682;SDS011;24897;53.514;10.482;2022-12-05T17:47:24;73.40;;;53.50;;
23682;SDS011;24897;53.514;10.482;2022-12-05T17:50:13;68.47;;;49.20;;
23682;SDS011;24897;53.514;10.482;2022-12-05T17:52:59;96.97;;;54.03;;
23682;SDS011;24897;53.514;10.482;2022-12-05T17:55:43;75.53;;;51.47;;
23682;SDS011;24897;53.514;10.482;2022-12-05T17:58:31;73.50;;;54.13;;
23682;SDS011;24897;53.514;10.482;2022-12-05T18:01:19;101.33;;;55.70;;
23682;SDS011;24897;53.514;10.482;2022-12-05T18:04:04;79.83;;;54.27;;
23682;SDS011;24897;53.514;10.482;2022-12-05T18:06:48;106.27;;;57.27;;
23682;SDS011;24897;53.514;10.482;2022-12-05T18:09:32;112.13;;;58.70;;
23682;SDS011;24897;53.514;10.482;2022-12-05T18:12:16;99.13;;;57.87;;
23682;SDS011;24897;53.514;10.482;2022-12-05T18:15:00;115.70;;;59.30;;
23682;SDS011;24897;53.514;10.482;2022-12-05T18:17:45;113.63;;;59.70;;
23682;SDS011;24897;53.514;10.482;2022-12-05T18:20:29;147.97;;;64.63;;
23682;SDS011;24897;53.514;10.482;2022-12-05T18:23:13;108.13;;;60.17;;
23682;SDS011;24897;53.514;10.482;2022-12-05T18:25:58;108.07;;;59.67;;
23682;SDS011;24897;53.514;10.482;2022-12-05T18:28:43;88.63;;;55.67;;
23682;SDS011;24897;53.514;10.482;2022-12-05T18:31:29;84.97;;;55.97;;
23682;SDS011;24897;53.514;10.482;2022-12-05T18:34:14;111.03;;;59.57;;
23682;SDS011;24897;53.514;10.482;2022-12-05T18:36:58;115.93;;;58.87;;
23682;SDS011;24897;53.514;10.482;2022-12-05T18:39:42;122.50;;;58.90;;
23682;SDS011;24897;53.514;10.482;2022-12-05T18:42:27;81.47;;;54.90;;
23682;SDS011;24897;53.514;10.482;2022-12-05T18:45:11;78.50;;;55.80;;